sensor_id;sensor_type;location;lat;lon;timestamp;temperature;humidity
19397;DHT22;9834;48.076;11.878;2022-08-01T00:00:30;19.90;95.80
19397;DHT22;9834;48.076;11.878;2022-08-01T00:02:57;20.00;96.00
19397;DHT22;9834;48.076;11.878;2022-08-01T00:05:24;20.10;95.40
19397;DHT22;9834;48.076;11.878;2022-08-01T00:07:53;20.20;94.80
19397;DHT22;9834;48.076;11.878;2022-08-01T00:10:20;20.30;94.90
19397;DHT22;9834;48.076;11.878;2022-08-01T00:12:47;20.40;94.60
19397;DHT22;9834;48.076;11.878;2022-08-01T00:15:16;20.40;94.40
19397;DHT22;9834;48.076;11.878;2022-08-01T00:17:43;20.40;94.40
19397;DHT22;9834;48.076;11.878;2022-08-01T00:20:12;20.40;94.00
19397;DHT22;9834;48.076;11.878;2022-08-01T00:22:39;20.40;93.90
19397;DHT22;9834;48.076;11.878;2022-08-01T00:25:08;20.50;94.10
19397;DHT22;9834;48.076;11.878;2022-08-01T00:27:35;20.50;93.90
19397;DHT22;9834;48.076;11.878;2022-08-01T00:30:02;20.40;94.20
19397;DHT22;9834;48.076;11.878;2022-08-01T00:32:30;20.30;94.50
19397;DHT22;9834;48.076;11.878;2022-08-01T00:34:57;20.30;94.90
19397;DHT22;9834;48.076;11.878;2022-08-01T00:37:24;20.10;94.90
19397;DHT22;9834;48.076;11.878;2022-08-01T00:39:51;20.10;94.90
19397;DHT22;9834;48.076;11.878;2022-08-01T00:42:19;20.00;95.10
19397;DHT22;9834;48.076;11.878;2022-08-01T00:44:46;20.00;95.10
19397;DHT22;9834;48.076;11.878;2022-08-01T00:47:13;20.00;95.40
19397;DHT22;9834;48.076;11.878;2022-08-01T00:49:40;19.90;95.40
19397;DHT22;9834;48.076;11.878;2022-08-01T00:52:08;19.80;95.20
19397;DHT22;9834;48.076;11.878;2022-08-01T00:54:36;19.90;95.30
19397;DHT22;9834;48.076;11.878;2022-08-01T00:57:03;19.80;95.40
19397;DHT22;9834;48.076;11.878;2022-08-01T00:59:33;19.70;95.50
19397;DHT22;9834;48.076;11.878;2022-08-01T01:02:00;19.70;95.50
19397;DHT22;9834;48.076;11.878;2022-08-01T01:04:27;19.70;96.10
19397;DHT22;9834;48.076;11.878;2022-08-01T01:06:59;19.60;96.30
19397;DHT22;9834;48.076;11.878;2022-08-01T01:09:35;19.40;96.70
19397;DHT22;9834;48.076;11.878;2022-08-01T01:12:13;19.30;97.10
19397;DHT22;9834;48.076;11.878;2022-08-01T01:14:45;19.20;97.70
19397;DHT22;9834;48.076;11.878;2022-08-01T01:17:21;19.00;98.30
19397;DHT22;9834;48.076;11.878;2022-08-01T01:19:54;18.80;99.00
19397;DHT22;9834;48.076;11.878;2022-08-01T01:22:27;18.70;99.30
19397;DHT22;9834;48.076;11.878;2022-08-01T01:25:18;18.60;99.70
19397;DHT22;9834;48.076;11.878;2022-08-01T01:27:55;18.60;99.40
19397;DHT22;9834;48.076;11.878;2022-08-01T01:30:26;18.70;99.80
19397;DHT22;9834;48.076;11.878;2022-08-01T01:32:57;18.70;99.60
19397;DHT22;9834;48.076;11.878;2022-08-01T01:35:27;18.60;99.90
19397;DHT22;9834;48.076;11.878;2022-08-01T01:38:00;18.60;99.90
19397;DHT22;9834;48.076;11.878;2022-08-01T01:40:29;18.70;99.90
19397;DHT22;9834;48.076;11.878;2022-08-01T01:42:57;18.60;99.90
19397;DHT22;9834;48.076;11.878;2022-08-01T01:45:26;18.70;99.90
19397;DHT22;9834;48.076;11.878;2022-08-01T01:47:54;18.60;99.90
19397;DHT22;9834;48.076;11.878;2022-08-01T01:50:24;18.60;99.90
19397;DHT22;9834;48.076;11.878;2022-08-01T01:52:52;18.60;99.90
19397;DHT22;9834;48.076;11.878;2022-08-01T01:55:21;18.60;99.90
19397;DHT22;9834;48.076;11.878;2022-08-01T01:57:50;18.50;99.90
19397;DHT22;9834;48.076;11.878;2022-08-01T02:00:19;18.50;99.90
19397;DHT22;9834;48.076;11.878;2022-08-01T02:02:47;18.40;99.90
19397;DHT22;9834;48.076;11.878;2022-08-01T02:05:15;18.40;99.90
19397;DHT22;9834;48.076;11.878;2022-08-01T02:07:43;18.30;99.90
19397;DHT22;9834;48.076;11.878;2022-08-01T02:10:12;18.30;99.90
19397;DHT22;9834;48.076;11.878;2022-08-01T02:12:41;18.30;99.90
19397;DHT22;9834;48.076;11.878;2022-08-01T02:15:11;18.30;99.90
19397;DHT22;9834;48.076;11.878;2022-08-01T02:17:44;18.20;99.90
19397;DHT22;9834;48.076;11.878;2022-08-01T02:20:14;18.10;99.90
19397;DHT22;9834;48.076;11.878;2022-08-01T02:22:46;18.10;99.90
19397;DHT22;9834;48.076;11.878;2022-08-01T02:25:19;18.10;99.90
19397;DHT22;9834;48.076;11.878;2022-08-01T02:27:54;18.00;99.90
19397;DHT22;9834;48.076;11.878;2022-08-01T02:30:24;17.90;99.90
19397;DHT22;9834;48.076;11.878;2022-08-01T02:32:58;17.70;99.90
19397;DHT22;9834;48.076;11.878;2022-08-01T02:35:31;17.50;99.90
19397;DHT22;9834;48.076;11.878;2022-08-01T02:38:00;17.40;99.90
19397;DHT22;9834;48.076;11.878;2022-08-01T02:40:31;17.40;99.90
19397;DHT22;9834;48.076;11.878;2022-08-01T02:43:01;17.30;99.90
19397;DHT22;9834;48.076;11.878;2022-08-01T02:45:29;17.20;99.90
19397;DHT22;9834;48.076;11.878;2022-08-01T02:48:00;17.10;99.90
19397;DHT22;9834;48.076;11.878;2022-08-01T02:50:30;17.10;99.90
19397;DHT22;9834;48.076;11.878;2022-08-01T02:52:59;17.00;99.90
19397;DHT22;9834;48.076;11.878;2022-08-01T02:55:27;17.10;99.90
19397;DHT22;9834;48.076;11.878;2022-08-01T02:57:55;17.20;99.90
19397;DHT22;9834;48.076;11.878;2022-08-01T03:00:23;17.20;99.90
19397;DHT22;9834;48.076;11.878;2022-08-01T03:02:52;17.30;99.90
19397;DHT22;9834;48.076;11.878;2022-08-01T03:05:21;17.20;99.90
19397;DHT22;9834;48.076;11.878;2022-08-01T03:07:52;17.10;99.90
19397;DHT22;9834;48.076;11.878;2022-08-01T03:10:19;17.00;99.90
19397;DHT22;9834;48.076;11.878;2022-08-01T03:12:48;17.00;99.90
19397;DHT22;9834;48.076;11.878;2022-08-01T03:15:17;17.20;99.90
19397;DHT22;9834;48.076;11.878;2022-08-01T03:17:47;17.30;99.90
19397;DHT22;9834;48.076;11.878;2022-08-01T03:20:15;17.20;99.90
19397;DHT22;9834;48.076;11.878;2022-08-01T03:22:44;17.00;99.90
19397;DHT22;9834;48.076;11.878;2022-08-01T03:25:15;16.90;99.90
19397;DHT22;9834;48.076;11.878;2022-08-01T03:27:43;16.80;99.90
19397;DHT22;9834;48.076;11.878;2022-08-01T03:30:12;16.80;99.90
19397;DHT22;9834;48.076;11.878;2022-08-01T03:32:39;16.80;99.90
19397;DHT22;9834;48.076;11.878;2022-08-01T03:35:07;16.90;99.90
19397;DHT22;9834;48.076;11.878;2022-08-01T03:37:36;16.80;99.90
19397;DHT22;9834;48.076;11.878;2022-08-01T03:40:09;16.80;99.90
19397;DHT22;9834;48.076;11.878;2022-08-01T03:42:42;16.60;99.90
19397;DHT22;9834;48.076;11.878;2022-08-01T03:45:19;16.50;99.90
19397;DHT22;9834;48.076;11.878;2022-08-01T03:47:47;16.50;99.90
19397;DHT22;9834;48.076;11.878;2022-08-01T03:50:15;16.60;99.90
19397;DHT22;9834;48.076;11.878;2022-08-01T03:52:45;16.80;99.90
19397;DHT22;9834;48.076;11.878;2022-08-01T03:55:16;16.80;99.90
19397;DHT22;9834;48.076;11.878;2022-08-01T03:57:47;16.80;99.90
19397;DHT22;9834;48.076;11.878;2022-08-01T04:00:14;16.90;99.90
19397;DHT22;9834;48.076;11.878;2022-08-01T04:02:47;16.80;99.90
19397;DHT22;9834;48.076;11.878;2022-08-01T04:05:17;16.80;99.90
19397;DHT22;9834;48.076;11.878;2022-08-01T04:07:47;16.80;99.90
19397;DHT22;9834;48.076;11.878;2022-08-01T04:10:20;16.90;99.90
19397;DHT22;9834;48.076;11.878;2022-08-01T04:12:49;16.90;99.90
19397;DHT22;9834;48.076;11.878;2022-08-01T04:15:16;17.00;99.90
19397;DHT22;9834;48.076;11.878;2022-08-01T04:17:46;17.20;99.90
19397;DHT22;9834;48.076;11.878;2022-08-01T04:20:13;17.30;99.90
19397;DHT22;9834;48.076;11.878;2022-08-01T04:22:41;17.50;99.90
19397;DHT22;9834;48.076;11.878;2022-08-01T04:25:12;17.50;99.90
19397;DHT22;9834;48.076;11.878;2022-08-01T04:27:45;17.60;99.90
19397;DHT22;9834;48.076;11.878;2022-08-01T04:30:14;17.70;99.90
19397;DHT22;9834;48.076;11.878;2022-08-01T04:32:46;17.80;99.90
19397;DHT22;9834;48.076;11.878;2022-08-01T04:35:16;17.80;99.90
19397;DHT22;9834;48.076;11.878;2022-08-01T04:37:46;17.80;99.90
19397;DHT22;9834;48.076;11.878;2022-08-01T04:40:17;17.90;99.90
19397;DHT22;9834;48.076;11.878;2022-08-01T04:42:47;18.00;99.90
19397;DHT22;9834;48.076;11.878;2022-08-01T04:45:16;18.00;99.90
19397;DHT22;9834;48.076;11.878;2022-08-01T04:47:43;18.10;99.90
19397;DHT22;9834;48.076;11.878;2022-08-01T04:50:13;18.20;99.90
19397;DHT22;9834;48.076;11.878;2022-08-01T04:52:40;18.20;99.90
19397;DHT22;9834;48.076;11.878;2022-08-01T04:55:11;18.40;99.90
19397;DHT22;9834;48.076;11.878;2022-08-01T04:57:44;18.60;99.90
19397;DHT22;9834;48.076;11.878;2022-08-01T05:00:12;18.70;99.90
19397;DHT22;9834;48.076;11.878;2022-08-01T05:02:41;18.80;99.90
19397;DHT22;9834;48.076;11.878;2022-08-01T05:05:08;18.90;99.90
19397;DHT22;9834;48.076;11.878;2022-08-01T05:07:36;19.00;99.90
19397;DHT22;9834;48.076;11.878;2022-08-01T05:10:04;19.00;99.90
19397;DHT22;9834;48.076;11.878;2022-08-01T05:12:31;19.10;99.90
19397;DHT22;9834;48.076;11.878;2022-08-01T05:14:58;19.10;99.90
19397;DHT22;9834;48.076;11.878;2022-08-01T05:17:25;19.20;99.90
19397;DHT22;9834;48.076;11.878;2022-08-01T05:19:54;19.20;99.90
19397;DHT22;9834;48.076;11.878;2022-08-01T05:22:21;19.30;99.90
19397;DHT22;9834;48.076;11.878;2022-08-01T05:24:51;19.50;99.90
19397;DHT22;9834;48.076;11.878;2022-08-01T05:27:18;19.50;99.90
19397;DHT22;9834;48.076;11.878;2022-08-01T05:29:45;19.60;99.90
19397;DHT22;9834;48.076;11.878;2022-08-01T05:32:12;19.70;99.90
19397;DHT22;9834;48.076;11.878;2022-08-01T05:34:39;19.80;99.40
19397;DHT22;9834;48.076;11.878;2022-08-01T05:37:07;19.90;98.70
19397;DHT22;9834;48.076;11.878;2022-08-01T05:39:34;19.90;98.90
19397;DHT22;9834;48.076;11.878;2022-08-01T05:42:01;19.90;98.70
19397;DHT22;9834;48.076;11.878;2022-08-01T05:44:28;19.90;98.10
19397;DHT22;9834;48.076;11.878;2022-08-01T05:46:56;19.90;98.70
19397;DHT22;9834;48.076;11.878;2022-08-01T05:49:22;19.90;98.00
19397;DHT22;9834;48.076;11.878;2022-08-01T05:51:49;19.80;98.20
19397;DHT22;9834;48.076;11.878;2022-08-01T05:54:19;19.70;98.60
19397;DHT22;9834;48.076;11.878;2022-08-01T05:56:46;19.70;98.70
19397;DHT22;9834;48.076;11.878;2022-08-01T05:59:13;19.70;99.30
19397;DHT22;9834;48.076;11.878;2022-08-01T06:01:40;19.80;98.40
19397;DHT22;9834;48.076;11.878;2022-08-01T06:04:07;19.90;98.00
19397;DHT22;9834;48.076;11.878;2022-08-01T06:06:34;19.90;98.30
19397;DHT22;9834;48.076;11.878;2022-08-01T06:09:01;19.90;97.90
19397;DHT22;9834;48.076;11.878;2022-08-01T06:11:29;20.00;98.30
19397;DHT22;9834;48.076;11.878;2022-08-01T06:13:56;20.10;97.50
19397;DHT22;9834;48.076;11.878;2022-08-01T06:16:23;20.20;97.40
19397;DHT22;9834;48.076;11.878;2022-08-01T06:18:50;20.30;96.80
19397;DHT22;9834;48.076;11.878;2022-08-01T06:21:17;20.40;96.80
19397;DHT22;9834;48.076;11.878;2022-08-01T06:23:44;20.50;96.70
19397;DHT22;9834;48.076;11.878;2022-08-01T06:26:12;20.60;95.90
19397;DHT22;9834;48.076;11.878;2022-08-01T06:28:40;20.70;96.20
19397;DHT22;9834;48.076;11.878;2022-08-01T06:31:07;20.70;95.30
19397;DHT22;9834;48.076;11.878;2022-08-01T06:33:35;20.80;95.30
19397;DHT22;9834;48.076;11.878;2022-08-01T06:36:03;20.90;94.90
19397;DHT22;9834;48.076;11.878;2022-08-01T06:38:30;21.00;95.50
19397;DHT22;9834;48.076;11.878;2022-08-01T06:40:57;21.10;94.20
19397;DHT22;9834;48.076;11.878;2022-08-01T06:43:24;21.10;93.90
19397;DHT22;9834;48.076;11.878;2022-08-01T06:45:52;21.20;93.60
19397;DHT22;9834;48.076;11.878;2022-08-01T06:48:19;21.20;93.50
19397;DHT22;9834;48.076;11.878;2022-08-01T06:50:46;21.40;93.30
19397;DHT22;9834;48.076;11.878;2022-08-01T06:53:13;21.40;93.60
19397;DHT22;9834;48.076;11.878;2022-08-01T06:55:40;21.50;92.70
19397;DHT22;9834;48.076;11.878;2022-08-01T06:58:07;21.50;92.50
19397;DHT22;9834;48.076;11.878;2022-08-01T07:00:34;21.60;93.40
19397;DHT22;9834;48.076;11.878;2022-08-01T07:03:03;21.60;92.60
19397;DHT22;9834;48.076;11.878;2022-08-01T07:05:30;21.70;93.10
19397;DHT22;9834;48.076;11.878;2022-08-01T07:07:57;21.70;92.10
19397;DHT22;9834;48.076;11.878;2022-08-01T07:10:24;21.70;91.70
19397;DHT22;9834;48.076;11.878;2022-08-01T07:12:51;21.80;92.00
19397;DHT22;9834;48.076;11.878;2022-08-01T07:15:18;21.90;91.90
19397;DHT22;9834;48.076;11.878;2022-08-01T07:17:47;22.00;91.80
19397;DHT22;9834;48.076;11.878;2022-08-01T07:20:15;22.10;91.30
19397;DHT22;9834;48.076;11.878;2022-08-01T07:22:43;22.10;91.40
19397;DHT22;9834;48.076;11.878;2022-08-01T07:25:09;22.20;90.90
19397;DHT22;9834;48.076;11.878;2022-08-01T07:27:37;22.20;91.20
19397;DHT22;9834;48.076;11.878;2022-08-01T07:30:05;22.20;90.80
19397;DHT22;9834;48.076;11.878;2022-08-01T07:32:33;22.30;91.00
19397;DHT22;9834;48.076;11.878;2022-08-01T07:35:00;22.30;91.10
19397;DHT22;9834;48.076;11.878;2022-08-01T07:37:29;22.40;91.50
19397;DHT22;9834;48.076;11.878;2022-08-01T07:39:56;22.40;90.90
19397;DHT22;9834;48.076;11.878;2022-08-01T07:42:23;22.50;90.90
19397;DHT22;9834;48.076;11.878;2022-08-01T07:44:49;22.40;90.70
19397;DHT22;9834;48.076;11.878;2022-08-01T07:47:23;22.40;91.30
19397;DHT22;9834;48.076;11.878;2022-08-01T07:49:50;22.30;90.90
19397;DHT22;9834;48.076;11.878;2022-08-01T07:52:17;22.30;90.60
19397;DHT22;9834;48.076;11.878;2022-08-01T07:54:46;22.20;91.00
19397;DHT22;9834;48.076;11.878;2022-08-01T07:57:13;22.20;91.60
19397;DHT22;9834;48.076;11.878;2022-08-01T07:59:40;22.10;91.60
19397;DHT22;9834;48.076;11.878;2022-08-01T08:02:06;22.10;91.40
19397;DHT22;9834;48.076;11.878;2022-08-01T08:04:34;22.10;91.40
19397;DHT22;9834;48.076;11.878;2022-08-01T08:07:01;22.10;90.90
19397;DHT22;9834;48.076;11.878;2022-08-01T08:09:27;22.10;90.90
19397;DHT22;9834;48.076;11.878;2022-08-01T08:11:56;22.30;90.90
19397;DHT22;9834;48.076;11.878;2022-08-01T08:14:23;22.40;90.90
19397;DHT22;9834;48.076;11.878;2022-08-01T08:16:50;22.50;91.00
19397;DHT22;9834;48.076;11.878;2022-08-01T08:19:18;22.70;90.30
19397;DHT22;9834;48.076;11.878;2022-08-01T08:21:45;22.80;88.60
19397;DHT22;9834;48.076;11.878;2022-08-01T08:24:12;23.00;89.00
19397;DHT22;9834;48.076;11.878;2022-08-01T08:26:50;23.00;86.30
19397;DHT22;9834;48.076;11.878;2022-08-01T08:29:23;23.10;86.70
19397;DHT22;9834;48.076;11.878;2022-08-01T08:31:53;23.10;87.00
19397;DHT22;9834;48.076;11.878;2022-08-01T08:34:21;23.20;87.00
19397;DHT22;9834;48.076;11.878;2022-08-01T08:36:49;23.20;86.10
19397;DHT22;9834;48.076;11.878;2022-08-01T08:39:16;23.30;85.10
19397;DHT22;9834;48.076;11.878;2022-08-01T08:41:45;23.40;85.60
19397;DHT22;9834;48.076;11.878;2022-08-01T08:44:12;23.60;85.30
19397;DHT22;9834;48.076;11.878;2022-08-01T08:46:43;23.60;83.40
19397;DHT22;9834;48.076;11.878;2022-08-01T08:49:12;23.60;83.90
19397;DHT22;9834;48.076;11.878;2022-08-01T08:51:41;23.70;81.70
19397;DHT22;9834;48.076;11.878;2022-08-01T08:54:11;23.70;81.90
19397;DHT22;9834;48.076;11.878;2022-08-01T08:56:39;23.70;84.30
19397;DHT22;9834;48.076;11.878;2022-08-01T08:59:07;23.80;81.70
19397;DHT22;9834;48.076;11.878;2022-08-01T09:01:34;23.90;81.30
19397;DHT22;9834;48.076;11.878;2022-08-01T09:04:03;24.00;81.30
19397;DHT22;9834;48.076;11.878;2022-08-01T09:06:30;24.00;83.30
19397;DHT22;9834;48.076;11.878;2022-08-01T09:08:57;24.10;82.10
19397;DHT22;9834;48.076;11.878;2022-08-01T09:11:27;24.10;81.50
19397;DHT22;9834;48.076;11.878;2022-08-01T09:14:08;24.10;79.50
19397;DHT22;9834;48.076;11.878;2022-08-01T09:16:37;24.20;78.30
19397;DHT22;9834;48.076;11.878;2022-08-01T09:19:11;24.30;77.10
19397;DHT22;9834;48.076;11.878;2022-08-01T09:21:38;24.30;76.10
19397;DHT22;9834;48.076;11.878;2022-08-01T09:24:14;24.30;76.20
19397;DHT22;9834;48.076;11.878;2022-08-01T09:26:42;24.50;76.10
19397;DHT22;9834;48.076;11.878;2022-08-01T09:29:19;24.60;77.10
19397;DHT22;9834;48.076;11.878;2022-08-01T09:31:46;24.70;77.10
19397;DHT22;9834;48.076;11.878;2022-08-01T09:34:15;24.70;74.70
19397;DHT22;9834;48.076;11.878;2022-08-01T09:36:45;24.80;73.50
19397;DHT22;9834;48.076;11.878;2022-08-01T09:39:17;24.90;78.20
19397;DHT22;9834;48.076;11.878;2022-08-01T09:41:45;24.90;72.70
19397;DHT22;9834;48.076;11.878;2022-08-01T09:44:12;25.00;73.10
19397;DHT22;9834;48.076;11.878;2022-08-01T09:46:52;25.20;75.40
19397;DHT22;9834;48.076;11.878;2022-08-01T09:49:32;25.30;72.20
19397;DHT22;9834;48.076;11.878;2022-08-01T09:52:10;25.30;75.30
19397;DHT22;9834;48.076;11.878;2022-08-01T09:54:38;25.40;70.60
19397;DHT22;9834;48.076;11.878;2022-08-01T09:57:10;25.50;72.90
19397;DHT22;9834;48.076;11.878;2022-08-01T09:59:39;25.80;70.10
19397;DHT22;9834;48.076;11.878;2022-08-01T10:02:08;25.90;69.10
19397;DHT22;9834;48.076;11.878;2022-08-01T10:04:46;26.10;68.30
19397;DHT22;9834;48.076;11.878;2022-08-01T10:07:14;26.20;69.10
19397;DHT22;9834;48.076;11.878;2022-08-01T10:09:42;26.40;67.90
19397;DHT22;9834;48.076;11.878;2022-08-01T10:12:10;26.60;68.70
19397;DHT22;9834;48.076;11.878;2022-08-01T10:14:39;27.10;67.00
19397;DHT22;9834;48.076;11.878;2022-08-01T10:17:08;27.30;64.20
19397;DHT22;9834;48.076;11.878;2022-08-01T10:19:36;27.50;64.90
19397;DHT22;9834;48.076;11.878;2022-08-01T10:22:07;28.10;60.70
19397;DHT22;9834;48.076;11.878;2022-08-01T10:24:37;29.50;57.90
19397;DHT22;9834;48.076;11.878;2022-08-01T10:27:06;30.30;55.10
19397;DHT22;9834;48.076;11.878;2022-08-01T10:29:37;31.10;54.20
19397;DHT22;9834;48.076;11.878;2022-08-01T10:32:07;31.50;55.30
19397;DHT22;9834;48.076;11.878;2022-08-01T10:34:35;32.10;50.00
19397;DHT22;9834;48.076;11.878;2022-08-01T10:37:02;32.30;49.70
19397;DHT22;9834;48.076;11.878;2022-08-01T10:39:32;32.60;50.90
19397;DHT22;9834;48.076;11.878;2022-08-01T10:42:01;32.90;47.60
19397;DHT22;9834;48.076;11.878;2022-08-01T10:44:30;33.00;48.00
19397;DHT22;9834;48.076;11.878;2022-08-01T10:47:02;33.00;47.70
19397;DHT22;9834;48.076;11.878;2022-08-01T10:49:31;33.40;47.90
19397;DHT22;9834;48.076;11.878;2022-08-01T10:52:02;33.60;45.70
19397;DHT22;9834;48.076;11.878;2022-08-01T10:54:30;32.90;45.70
19397;DHT22;9834;48.076;11.878;2022-08-01T10:57:04;32.80;47.20
19397;DHT22;9834;48.076;11.878;2022-08-01T10:59:33;33.30;47.60
19397;DHT22;9834;48.076;11.878;2022-08-01T11:02:02;33.40;45.80
19397;DHT22;9834;48.076;11.878;2022-08-01T11:04:34;33.50;45.10
19397;DHT22;9834;48.076;11.878;2022-08-01T11:07:08;33.50;44.30
19397;DHT22;9834;48.076;11.878;2022-08-01T11:09:41;33.20;44.50
19397;DHT22;9834;48.076;11.878;2022-08-01T11:12:11;33.00;45.40
19397;DHT22;9834;48.076;11.878;2022-08-01T11:15:23;32.20;46.60
19397;DHT22;9834;48.076;11.878;2022-08-01T11:17:54;31.50;47.70
19397;DHT22;9834;48.076;11.878;2022-08-01T11:20:23;32.40;48.30
19397;DHT22;9834;48.076;11.878;2022-08-01T11:23:24;33.00;45.10
19397;DHT22;9834;48.076;11.878;2022-08-01T11:26:18;33.50;43.30
19397;DHT22;9834;48.076;11.878;2022-08-01T11:31:29;33.40;44.40
19397;DHT22;9834;48.076;11.878;2022-08-01T11:33:58;32.70;46.00
19397;DHT22;9834;48.076;11.878;2022-08-01T11:36:26;32.70;44.60
19397;DHT22;9834;48.076;11.878;2022-08-01T11:39:17;32.50;45.50
19397;DHT22;9834;48.076;11.878;2022-08-01T11:41:48;32.90;44.00
19397;DHT22;9834;48.076;11.878;2022-08-01T11:44:18;34.10;44.20
19397;DHT22;9834;48.076;11.878;2022-08-01T11:46:50;34.10;43.10
19397;DHT22;9834;48.076;11.878;2022-08-01T11:49:25;32.50;46.50
19397;DHT22;9834;48.076;11.878;2022-08-01T11:52:00;31.10;47.80
19397;DHT22;9834;48.076;11.878;2022-08-01T11:54:28;30.10;50.10
19397;DHT22;9834;48.076;11.878;2022-08-01T11:56:58;31.50;48.30
19397;DHT22;9834;48.076;11.878;2022-08-01T11:59:26;33.10;44.00
19397;DHT22;9834;48.076;11.878;2022-08-01T12:01:54;34.70;43.00
19397;DHT22;9834;48.076;11.878;2022-08-01T12:04:21;34.90;41.80
19397;DHT22;9834;48.076;11.878;2022-08-01T12:06:48;33.20;45.20
19397;DHT22;9834;48.076;11.878;2022-08-01T12:09:18;31.30;46.00
19397;DHT22;9834;48.076;11.878;2022-08-01T12:11:46;30.00;48.50
19397;DHT22;9834;48.076;11.878;2022-08-01T12:14:19;29.70;49.20
19397;DHT22;9834;48.076;11.878;2022-08-01T12:16:51;29.70;51.80
19397;DHT22;9834;48.076;11.878;2022-08-01T12:19:20;29.80;50.30
19397;DHT22;9834;48.076;11.878;2022-08-01T12:22:07;29.80;50.10
19397;DHT22;9834;48.076;11.878;2022-08-01T12:24:35;31.20;47.20
19397;DHT22;9834;48.076;11.878;2022-08-01T12:27:02;33.50;44.30
19397;DHT22;9834;48.076;11.878;2022-08-01T12:29:39;35.10;41.40
19397;DHT22;9834;48.076;11.878;2022-08-01T12:32:21;35.10;42.40
19397;DHT22;9834;48.076;11.878;2022-08-01T12:34:50;34.70;40.70
19397;DHT22;9834;48.076;11.878;2022-08-01T12:37:17;34.50;40.50
19397;DHT22;9834;48.076;11.878;2022-08-01T12:39:45;33.80;41.70
19397;DHT22;9834;48.076;11.878;2022-08-01T12:42:13;34.00;41.60
19397;DHT22;9834;48.076;11.878;2022-08-01T12:44:44;35.50;40.20
19397;DHT22;9834;48.076;11.878;2022-08-01T12:47:11;36.50;38.10
19397;DHT22;9834;48.076;11.878;2022-08-01T12:49:42;36.50;36.20
19397;DHT22;9834;48.076;11.878;2022-08-01T12:52:09;36.00;36.90
19397;DHT22;9834;48.076;11.878;2022-08-01T12:55:01;36.40;36.90
19397;DHT22;9834;48.076;11.878;2022-08-01T12:57:29;36.30;36.00
19397;DHT22;9834;48.076;11.878;2022-08-01T13:00:10;35.20;37.50
19397;DHT22;9834;48.076;11.878;2022-08-01T13:02:39;34.70;38.40
19397;DHT22;9834;48.076;11.878;2022-08-01T13:05:07;34.70;39.40
19397;DHT22;9834;48.076;11.878;2022-08-01T13:07:40;34.70;39.10
19397;DHT22;9834;48.076;11.878;2022-08-01T13:10:07;34.90;39.10
19397;DHT22;9834;48.076;11.878;2022-08-01T13:12:35;34.80;38.20
19397;DHT22;9834;48.076;11.878;2022-08-01T13:15:19;34.60;37.30
19397;DHT22;9834;48.076;11.878;2022-08-01T13:17:47;33.90;38.10
19397;DHT22;9834;48.076;11.878;2022-08-01T13:20:30;33.30;38.90
19397;DHT22;9834;48.076;11.878;2022-08-01T13:23:11;33.10;39.90
19397;DHT22;9834;48.076;11.878;2022-08-01T13:25:51;32.50;42.00
19397;DHT22;9834;48.076;11.878;2022-08-01T13:28:20;32.20;41.90
19397;DHT22;9834;48.076;11.878;2022-08-01T13:30:55;32.10;42.40
19397;DHT22;9834;48.076;11.878;2022-08-01T13:33:23;32.90;41.30
19397;DHT22;9834;48.076;11.878;2022-08-01T13:35:51;34.70;39.00
19397;DHT22;9834;48.076;11.878;2022-08-01T13:38:19;36.00;37.10
19397;DHT22;9834;48.076;11.878;2022-08-01T13:41:06;38.20;33.30
19397;DHT22;9834;48.076;11.878;2022-08-01T13:43:33;38.80;32.50
19397;DHT22;9834;48.076;11.878;2022-08-01T13:46:02;39.50;31.30
19397;DHT22;9834;48.076;11.878;2022-08-01T13:48:30;40.00;32.10
19397;DHT22;9834;48.076;11.878;2022-08-01T13:50:58;39.80;32.80
19397;DHT22;9834;48.076;11.878;2022-08-01T13:53:25;37.70;33.30
19397;DHT22;9834;48.076;11.878;2022-08-01T13:55:52;35.60;36.60
19397;DHT22;9834;48.076;11.878;2022-08-01T13:58:19;33.70;39.20
19397;DHT22;9834;48.076;11.878;2022-08-01T14:00:46;32.10;42.70
19397;DHT22;9834;48.076;11.878;2022-08-01T14:03:15;30.90;44.50
19397;DHT22;9834;48.076;11.878;2022-08-01T14:05:43;30.00;46.50
19397;DHT22;9834;48.076;11.878;2022-08-01T14:08:10;29.30;48.40
19397;DHT22;9834;48.076;11.878;2022-08-01T14:10:37;30.00;48.40
19397;DHT22;9834;48.076;11.878;2022-08-01T14:13:05;30.60;46.80
19397;DHT22;9834;48.076;11.878;2022-08-01T14:15:32;30.20;48.20
19397;DHT22;9834;48.076;11.878;2022-08-01T14:17:59;29.80;48.00
19397;DHT22;9834;48.076;11.878;2022-08-01T14:20:28;29.50;50.10
19397;DHT22;9834;48.076;11.878;2022-08-01T14:22:55;29.40;50.60
19397;DHT22;9834;48.076;11.878;2022-08-01T14:25:22;29.50;48.10
19397;DHT22;9834;48.076;11.878;2022-08-01T14:27:49;29.50;47.40
19397;DHT22;9834;48.076;11.878;2022-08-01T14:30:16;29.30;47.30
19397;DHT22;9834;48.076;11.878;2022-08-01T14:32:43;29.30;46.90
19397;DHT22;9834;48.076;11.878;2022-08-01T14:35:10;29.00;45.80
19397;DHT22;9834;48.076;11.878;2022-08-01T14:37:38;28.70;47.00
19397;DHT22;9834;48.076;11.878;2022-08-01T14:40:06;28.60;47.60
19397;DHT22;9834;48.076;11.878;2022-08-01T14:42:35;28.40;47.80
19397;DHT22;9834;48.076;11.878;2022-08-01T14:45:03;28.40;48.30
19397;DHT22;9834;48.076;11.878;2022-08-01T14:47:34;28.50;49.60
19397;DHT22;9834;48.076;11.878;2022-08-01T14:50:02;28.70;49.20
19397;DHT22;9834;48.076;11.878;2022-08-01T14:52:29;28.70;49.00
19397;DHT22;9834;48.076;11.878;2022-08-01T14:54:58;28.40;48.70
19397;DHT22;9834;48.076;11.878;2022-08-01T14:57:25;28.10;50.20
19397;DHT22;9834;48.076;11.878;2022-08-01T14:59:52;27.90;51.20
19397;DHT22;9834;48.076;11.878;2022-08-01T15:02:19;27.90;50.90
19397;DHT22;9834;48.076;11.878;2022-08-01T15:04:46;27.90;51.30
19397;DHT22;9834;48.076;11.878;2022-08-01T15:07:14;28.00;51.00
19397;DHT22;9834;48.076;11.878;2022-08-01T15:09:41;28.20;51.50
19397;DHT22;9834;48.076;11.878;2022-08-01T15:12:11;28.60;53.00
19397;DHT22;9834;48.076;11.878;2022-08-01T15:14:38;28.90;52.60
19397;DHT22;9834;48.076;11.878;2022-08-01T15:17:19;30.10;52.60
19397;DHT22;9834;48.076;11.878;2022-08-01T15:19:46;31.10;48.90
19397;DHT22;9834;48.076;11.878;2022-08-01T15:22:13;31.80;47.70
19397;DHT22;9834;48.076;11.878;2022-08-01T15:24:41;31.60;48.00
19397;DHT22;9834;48.076;11.878;2022-08-01T15:27:10;31.00;49.70
19397;DHT22;9834;48.076;11.878;2022-08-01T15:29:37;30.00;51.50
19397;DHT22;9834;48.076;11.878;2022-08-01T15:32:05;30.10;51.00
19397;DHT22;9834;48.076;11.878;2022-08-01T15:34:33;29.50;51.50
19397;DHT22;9834;48.076;11.878;2022-08-01T15:37:00;28.90;53.70
19397;DHT22;9834;48.076;11.878;2022-08-01T15:39:27;28.10;54.90
19397;DHT22;9834;48.076;11.878;2022-08-01T15:41:54;27.30;57.10
19397;DHT22;9834;48.076;11.878;2022-08-01T15:44:22;26.90;58.90
19397;DHT22;9834;48.076;11.878;2022-08-01T15:46:49;26.60;62.20